ěÝzenÝ letovÚho provozu ╚eskÚ republiky
Letiste: LKBC Aktualizace: 23.11.2020 18:26:24  UTC
 METAR LKBC 23.11. 18:30 ...
METAR LKBC 231830Z AUTO 26003KT CAVOK 02/01 Q1029=